createdAt,value
2022-08-26T00:01:34.648Z,90.80
2022-08-26T00:04:25.329Z,91.20
2022-08-26T00:07:15.062Z,91.40
2022-08-26T00:10:07.482Z,91.70
2022-08-26T00:12:56.946Z,92.40
2022-08-26T00:16:51.481Z,92.30
2022-08-26T00:19:49.836Z,93.80
2022-08-26T00:22:42.355Z,92.30
2022-08-26T00:25:33.293Z,92.40
2022-08-26T00:28:23.565Z,92.90
2022-08-26T00:31:13.706Z,92.80
2022-08-26T00:34:03.193Z,93.10
2022-08-26T00:36:52.934Z,93.30
2022-08-26T00:39:42.386Z,93.60
2022-08-26T00:42:33.357Z,93.70
2022-08-26T00:45:23.122Z,94.40
2022-08-26T00:48:15.833Z,94.10
2022-08-26T00:51:12.242Z,94.40
2022-08-26T00:54:06.929Z,95.10
2022-08-26T00:57:04.927Z,95.20
2022-08-26T01:00:02.873Z,95.30
2022-08-26T01:02:52.581Z,95.90
2022-08-26T01:05:42.881Z,95.40
2022-08-26T01:08:32.488Z,95.80
2022-08-26T01:11:22.037Z,95.90
2022-08-26T01:14:13.675Z,96.10
2022-08-26T01:17:07.417Z,96.30
2022-08-26T01:20:05.731Z,97.20
2022-08-26T01:23:01.490Z,97.70
2022-08-26T01:25:58.451Z,97.70
2022-08-26T01:28:51.715Z,97.50
2022-08-26T01:31:46.593Z,97.60
2022-08-26T01:34:38.772Z,98.20
2022-08-26T01:37:34.901Z,98.10
2022-08-26T01:40:32.793Z,98.40
2022-08-26T01:43:27.161Z,99.10
2022-08-26T01:46:18.429Z,99.20
2022-08-26T01:49:09.509Z,98.90
2022-08-26T01:51:59.870Z,98.90
2022-08-26T01:54:50.532Z,99.20
2022-08-26T01:57:44.174Z,99.00
2022-08-26T02:00:35.367Z,99.60
2022-08-26T02:03:26.921Z,99.20
2022-08-26T02:06:16.352Z,99.30
2022-08-26T02:09:07.204Z,99.40
2022-08-26T02:11:56.925Z,99.60
2022-08-26T02:14:53.734Z,99.60
2022-08-26T02:17:46.758Z,99.90
2022-08-26T02:20:37.406Z,99.90
2022-08-26T02:23:27.191Z,99.90
2022-08-26T02:26:20.553Z,99.90
2022-08-26T02:29:19.679Z,99.90
2022-08-26T02:32:13.434Z,99.90
2022-08-26T02:35:09.587Z,99.90
2022-08-26T02:38:00.330Z,99.90
2022-08-26T02:40:50.113Z,99.90
2022-08-26T02:43:40.558Z,99.90
2022-08-26T02:46:31.438Z,99.90
2022-08-26T02:49:24.261Z,99.90
2022-08-26T02:52:14.342Z,99.90
2022-08-26T02:55:03.841Z,99.90
2022-08-26T02:57:53.660Z,99.90
2022-08-26T03:00:53.163Z,99.90
2022-08-26T03:03:43.104Z,99.90
2022-08-26T03:06:34.115Z,99.90
2022-08-26T03:09:23.653Z,99.90
2022-08-26T03:12:13.471Z,99.90
2022-08-26T03:15:16.012Z,99.90
2022-08-26T03:18:07.621Z,99.90
2022-08-26T03:20:57.055Z,99.90
2022-08-26T03:23:49.665Z,99.90
2022-08-26T03:26:39.473Z,99.90
2022-08-26T03:29:58.938Z,99.90
2022-08-26T03:32:48.293Z,99.90
2022-08-26T03:35:38.128Z,99.90
2022-08-26T03:38:28.888Z,99.90
2022-08-26T03:41:21.390Z,99.90
2022-08-26T03:44:10.913Z,99.90
2022-08-26T03:47:00.426Z,99.90
2022-08-26T03:49:49.948Z,99.90
2022-08-26T03:52:43.849Z,99.90
2022-08-26T03:55:34.620Z,99.90
2022-08-26T03:58:25.525Z,99.90
2022-08-26T04:01:16.460Z,99.90
2022-08-26T04:04:06.450Z,99.90
2022-08-26T04:06:59.466Z,99.90
2022-08-26T04:09:48.821Z,99.90
2022-08-26T04:12:39.708Z,99.90
2022-08-26T04:15:30.775Z,99.90
2022-08-26T04:18:21.418Z,99.90
2022-08-26T04:21:12.151Z,99.90
2022-08-26T04:24:08.365Z,99.90
2022-08-26T04:27:03.586Z,99.90
2022-08-26T04:29:55.342Z,99.90
2022-08-26T04:32:46.473Z,99.90
2022-08-26T04:35:37.136Z,99.90
2022-08-26T04:38:27.212Z,99.90
2022-08-26T04:41:16.973Z,99.90
2022-08-26T04:44:07.831Z,99.90
2022-08-26T04:46:58.551Z,99.90
2022-08-26T04:49:49.618Z,99.90
2022-08-26T04:52:39.936Z,99.90
2022-08-26T04:55:38.537Z,99.90
2022-08-26T04:58:29.305Z,99.90
2022-08-26T05:01:18.998Z,99.90
2022-08-26T05:04:08.489Z,99.90
2022-08-26T05:06:59.856Z,99.90
2022-08-26T05:09:52.866Z,99.90
2022-08-26T05:12:42.324Z,99.90
2022-08-26T05:15:33.784Z,99.90
2022-08-26T05:18:25.866Z,99.90
2022-08-26T05:21:21.273Z,99.90
2022-08-26T05:24:12.871Z,99.90
2022-08-26T05:27:03.233Z,99.90
2022-08-26T05:30:01.897Z,99.90
2022-08-26T05:32:55.207Z,99.90
2022-08-26T05:35:46.418Z,99.90
2022-08-26T05:38:36.144Z,99.90
2022-08-26T05:41:34.181Z,99.90
2022-08-26T05:44:25.717Z,99.90
2022-08-26T05:47:15.055Z,99.90
2022-08-26T05:50:05.809Z,99.90
2022-08-26T05:52:55.231Z,99.90
2022-08-26T05:55:46.366Z,99.90
2022-08-26T05:58:39.350Z,99.90
2022-08-26T06:01:30.779Z,99.90
2022-08-26T06:04:27.033Z,99.90
2022-08-26T06:07:38.874Z,99.90
2022-08-26T06:10:32.358Z,99.90
2022-08-26T06:13:27.739Z,99.90
2022-08-26T06:16:24.999Z,99.90
2022-08-26T06:19:17.285Z,99.90
2022-08-26T06:22:26.846Z,99.90
2022-08-26T06:25:34.105Z,99.90
2022-08-26T06:28:24.625Z,99.90
2022-08-26T06:31:15.726Z,99.90
2022-08-26T06:34:10.753Z,99.90
2022-08-26T06:37:03.519Z,98.10
2022-08-26T06:39:53.291Z,97.60
2022-08-26T06:42:42.808Z,96.70
2022-08-26T06:45:33.986Z,95.50
2022-08-26T06:48:23.523Z,94.20
2022-08-26T06:51:19.155Z,93.00
2022-08-26T06:54:11.822Z,90.90
2022-08-26T06:57:01.771Z,90.50
2022-08-26T06:59:51.351Z,88.70
2022-08-26T07:02:41.098Z,86.20
2022-08-26T07:05:36.905Z,83.60
2022-08-26T07:08:27.673Z,81.30
2022-08-26T07:11:19.102Z,79.30
2022-08-26T07:14:09.227Z,78.10
2022-08-26T07:17:01.463Z,76.70
2022-08-26T07:19:51.136Z,75.80
2022-08-26T07:22:42.486Z,74.50
2022-08-26T07:25:33.289Z,72.90
2022-08-26T07:28:23.006Z,71.70
2022-08-26T07:31:16.130Z,71.40
2022-08-26T07:34:07.460Z,69.90
2022-08-26T07:36:58.814Z,69.70
2022-08-26T07:39:48.873Z,68.90
2022-08-26T07:42:40.051Z,67.90
2022-08-26T07:45:30.047Z,67.30
2022-08-26T07:48:19.902Z,66.40
2022-08-26T07:51:11.116Z,65.60
2022-08-26T07:54:00.595Z,65.00
2022-08-26T07:56:50.299Z,64.10
2022-08-26T07:59:42.622Z,62.80
2022-08-26T08:02:32.203Z,61.50
2022-08-26T08:05:33.369Z,60.80
2022-08-26T08:08:27.550Z,59.90
2022-08-26T08:11:20.477Z,59.50
2022-08-26T08:14:11.801Z,58.70
2022-08-26T08:17:02.953Z,57.80
2022-08-26T08:19:52.580Z,57.10
2022-08-26T08:22:43.029Z,57.20
2022-08-26T08:25:34.521Z,57.10
2022-08-26T08:28:24.105Z,56.90
2022-08-26T08:31:38.745Z,55.90
2022-08-26T08:34:32.890Z,54.30
2022-08-26T08:37:23.079Z,55.00
2022-08-26T08:40:18.281Z,54.80
2022-08-26T08:43:11.556Z,54.00
2022-08-26T08:46:07.205Z,53.90
2022-08-26T08:48:59.951Z,52.90
2022-08-26T08:51:57.354Z,52.90
2022-08-26T08:54:47.614Z,51.70
2022-08-26T08:58:02.122Z,51.10
2022-08-26T09:01:04.754Z,49.10
2022-08-26T09:04:10.854Z,48.10
2022-08-26T09:07:04.704Z,47.90
2022-08-26T09:09:59.944Z,47.50
2022-08-26T09:12:52.155Z,47.30
2022-08-26T09:15:58.623Z,47.50
2022-08-26T09:19:14.363Z,47.60
2022-08-26T09:22:09.297Z,48.00
2022-08-26T09:24:59.555Z,48.30
2022-08-26T09:27:52.375Z,48.90
2022-08-26T09:30:41.784Z,49.30
2022-08-26T09:33:33.639Z,49.90
2022-08-26T09:36:41.039Z,50.40
2022-08-26T09:39:37.639Z,50.60
2022-08-26T09:42:27.396Z,50.70
2022-08-26T09:45:17.114Z,51.00
2022-08-26T09:48:08.171Z,51.20
2022-08-26T09:51:01.450Z,51.40
2022-08-26T09:53:54.882Z,51.80
2022-08-26T09:56:46.475Z,52.10
2022-08-26T09:59:36.089Z,52.40
2022-08-26T10:02:41.648Z,52.60
2022-08-26T10:05:44.565Z,53.40
2022-08-26T10:08:37.855Z,53.50
2022-08-26T10:11:38.757Z,53.60
2022-08-26T10:14:34.475Z,53.80
2022-08-26T10:17:30.929Z,53.60
2022-08-26T10:20:25.380Z,53.50
2022-08-26T10:23:20.655Z,53.50
2022-08-26T10:26:17.946Z,53.70
2022-08-26T10:29:15.377Z,53.80
2022-08-26T10:32:14.071Z,54.00
2022-08-26T10:35:03.933Z,54.30
2022-08-26T10:38:04.021Z,54.30
2022-08-26T10:41:00.114Z,54.60
2022-08-26T10:43:54.398Z,54.80
2022-08-26T10:46:52.072Z,55.00
2022-08-26T10:49:45.393Z,55.30
2022-08-26T10:52:56.441Z,55.30
2022-08-26T10:55:58.486Z,54.90
2022-08-26T10:59:03.290Z,54.60
2022-08-26T11:02:04.192Z,54.30
2022-08-26T11:04:59.054Z,54.30
2022-08-26T11:07:54.451Z,54.60
2022-08-26T11:11:05.469Z,54.60
2022-08-26T11:14:05.528Z,54.80
2022-08-26T11:16:56.981Z,55.90
2022-08-26T11:20:09.070Z,57.10
2022-08-26T11:23:50.701Z,56.70
2022-08-26T11:26:55.908Z,56.50
2022-08-26T11:30:03.322Z,56.20
2022-08-26T11:32:57.264Z,55.50
2022-08-26T11:35:51.234Z,55.30
2022-08-26T11:38:44.109Z,54.60
2022-08-26T11:41:35.546Z,54.00
2022-08-26T11:44:30.997Z,53.40
2022-08-26T11:47:30.425Z,53.10
2022-08-26T11:50:26.100Z,52.80
2022-08-26T11:53:20.074Z,52.80
2022-08-26T11:56:33.149Z,52.70
2022-08-26T12:02:28.107Z,52.50
2022-08-26T12:05:25.470Z,52.90
2022-08-26T12:08:25.225Z,53.10
2022-08-26T12:11:24.879Z,52.90
2022-08-26T12:14:22.057Z,52.50
2022-08-26T12:17:14.339Z,52.50
2022-08-26T12:20:06.356Z,52.90
2022-08-26T12:22:56.646Z,53.20
2022-08-26T12:25:47.821Z,53.20
2022-08-26T12:28:45.223Z,53.20
2022-08-26T12:31:38.054Z,53.10
2022-08-26T12:34:28.160Z,53.40
2022-08-26T12:37:19.205Z,53.10
2022-08-26T12:40:34.301Z,53.10
2022-08-26T12:43:42.123Z,52.90
2022-08-26T12:46:31.909Z,52.10
2022-08-26T12:49:21.366Z,52.50
2022-08-26T12:52:30.106Z,52.50
2022-08-26T12:55:24.929Z,52.20
2022-08-26T12:58:24.857Z,52.40
2022-08-26T13:01:24.274Z,52.30
2022-08-26T13:04:38.129Z,52.20
2022-08-26T13:07:28.367Z,52.20
2022-08-26T13:10:37.679Z,52.20
2022-08-26T13:13:27.151Z,52.20
2022-08-26T13:16:16.741Z,52.20
2022-08-26T13:19:10.201Z,52.10
2022-08-26T13:22:01.633Z,52.30
2022-08-26T13:24:53.564Z,52.20
2022-08-26T13:27:43.237Z,52.30
2022-08-26T13:30:32.707Z,52.40
2022-08-26T13:33:22.855Z,52.50
2022-08-26T13:36:13.959Z,52.70
2022-08-26T13:39:04.131Z,52.90
2022-08-26T13:41:54.487Z,53.00
2022-08-26T13:44:45.189Z,53.10
2022-08-26T13:47:34.737Z,53.20
2022-08-26T13:50:24.276Z,53.30
2022-08-26T13:53:15.676Z,53.50
2022-08-26T13:56:10.861Z,53.60
2022-08-26T13:59:02.118Z,53.50
2022-08-26T14:01:51.929Z,53.60
2022-08-26T14:04:42.074Z,53.60
2022-08-26T14:07:31.545Z,53.70
2022-08-26T14:10:22.459Z,53.70
2022-08-26T14:13:11.886Z,53.60
2022-08-26T14:16:02.199Z,53.60
2022-08-26T14:18:52.328Z,53.60
2022-08-26T14:21:41.814Z,53.70
2022-08-26T14:24:31.750Z,53.90
2022-08-26T14:27:22.736Z,54.00
2022-08-26T14:30:13.013Z,54.10
2022-08-26T14:33:02.543Z,54.20
2022-08-26T14:35:52.066Z,54.30
2022-08-26T14:38:41.984Z,54.30
2022-08-26T14:41:32.567Z,54.40
2022-08-26T14:44:27.247Z,54.30
2022-08-26T14:47:16.736Z,54.40
2022-08-26T14:50:07.502Z,54.30
2022-08-26T14:53:14.615Z,54.30
2022-08-26T14:56:04.594Z,54.40
2022-08-26T14:58:55.358Z,54.40
2022-08-26T15:01:46.801Z,54.40
2022-08-26T15:04:36.644Z,54.50
2022-08-26T15:07:26.091Z,54.50
2022-08-26T15:10:18.029Z,54.50
2022-08-26T15:13:07.694Z,54.50
2022-08-26T15:15:57.404Z,54.40
2022-08-26T15:18:48.377Z,54.40
2022-08-26T15:21:38.615Z,54.50
2022-08-26T15:24:29.738Z,54.50
2022-08-26T15:27:19.633Z,54.60
2022-08-26T15:30:13.166Z,54.70
2022-08-26T15:33:02.661Z,54.80
2022-08-26T15:35:53.988Z,54.90
2022-08-26T15:38:43.693Z,55.00
2022-08-26T15:41:34.972Z,55.10
2022-08-26T15:44:26.108Z,55.30
2022-08-26T15:47:15.726Z,55.20
2022-08-26T15:50:05.800Z,55.30
2022-08-26T15:52:56.753Z,55.30
2022-08-26T15:55:46.385Z,55.50
2022-08-26T15:58:36.298Z,55.60
2022-08-26T16:01:27.789Z,55.60
2022-08-26T16:04:18.588Z,55.80
2022-08-26T16:07:08.155Z,55.90
2022-08-26T16:09:58.997Z,56.00
2022-08-26T16:12:48.495Z,56.10
2022-08-26T16:15:38.826Z,56.10
2022-08-26T16:18:28.835Z,56.20
2022-08-26T16:21:22.940Z,56.30
2022-08-26T16:24:13.087Z,56.50
2022-08-26T16:27:04.005Z,56.40
2022-08-26T16:29:53.506Z,56.60
2022-08-26T16:32:43.046Z,56.60
2022-08-26T16:35:32.631Z,56.60
2022-08-26T16:38:22.175Z,56.60
2022-08-26T16:41:12.791Z,56.60
2022-08-26T16:44:07.715Z,56.60
2022-08-26T16:46:58.704Z,57.30
2022-08-26T16:49:48.630Z,56.70
2022-08-26T16:52:38.449Z,56.70
2022-08-26T16:55:28.336Z,56.80
2022-08-26T16:58:18.217Z,56.80
2022-08-26T17:01:10.053Z,56.90
2022-08-26T17:03:59.567Z,57.00
2022-08-26T17:06:49.345Z,57.00
2022-08-26T17:09:40.257Z,57.10
2022-08-26T17:12:31.485Z,57.20
2022-08-26T17:15:22.205Z,57.20
2022-08-26T17:18:13.220Z,57.20
2022-08-26T17:21:04.621Z,57.30
2022-08-26T17:23:54.230Z,57.40
2022-08-26T17:26:44.418Z,57.40
2022-08-26T17:29:37.993Z,57.50
2022-08-26T17:32:27.411Z,57.50
2022-08-26T17:35:18.567Z,57.50
2022-08-26T17:38:08.329Z,57.60
2022-08-26T17:40:58.791Z,57.70
2022-08-26T17:43:48.448Z,57.80
2022-08-26T17:46:38.538Z,57.80
2022-08-26T17:49:28.736Z,57.90
2022-08-26T17:52:19.859Z,58.00
2022-08-26T17:55:12.201Z,58.00
2022-08-26T17:58:03.910Z,58.10
2022-08-26T18:00:55.674Z,58.20
2022-08-26T18:03:45.339Z,58.20
2022-08-26T18:06:34.980Z,58.40
2022-08-26T18:09:25.780Z,58.50
2022-08-26T18:12:15.746Z,58.80
2022-08-26T18:15:06.333Z,59.50
2022-08-26T18:17:55.840Z,59.00
2022-08-26T18:20:46.827Z,59.10
2022-08-26T18:23:41.938Z,59.40
2022-08-26T18:26:35.639Z,59.40
2022-08-26T18:29:25.485Z,59.70
2022-08-26T18:32:14.902Z,59.70
2022-08-26T18:35:05.243Z,59.70
2022-08-26T18:37:54.610Z,59.90
2022-08-26T18:40:46.429Z,60.00
2022-08-26T18:43:37.311Z,60.30
2022-08-26T18:46:28.708Z,60.20
2022-08-26T18:49:21.643Z,61.00
2022-08-26T18:52:11.084Z,60.50
2022-08-26T18:55:00.979Z,60.50
2022-08-26T18:57:50.780Z,60.60
2022-08-26T19:00:41.557Z,60.80
2022-08-26T19:03:31.041Z,60.90
2022-08-26T19:06:24.244Z,61.00
2022-08-26T19:09:14.192Z,61.30
2022-08-26T19:12:05.990Z,61.30
2022-08-26T19:14:56.464Z,61.50
2022-08-26T19:17:48.443Z,61.50
2022-08-26T19:20:43.492Z,61.80
2022-08-26T19:23:35.661Z,61.90
2022-08-26T19:26:26.425Z,61.90
2022-08-26T19:32:10.866Z,62.10
2022-08-26T19:35:01.682Z,62.20
2022-08-26T19:37:51.130Z,62.40
2022-08-26T19:40:41.520Z,62.40
2022-08-26T19:43:31.010Z,62.50
2022-08-26T19:46:24.164Z,63.30
2022-08-26T19:49:13.738Z,62.80
2022-08-26T19:52:06.031Z,62.90
2022-08-26T19:54:55.471Z,63.10
2022-08-26T19:57:45.480Z,63.10
2022-08-26T20:00:36.701Z,63.10
2022-08-26T20:03:27.425Z,63.20
2022-08-26T20:06:18.429Z,63.30
2022-08-26T20:09:09.296Z,63.50
2022-08-26T20:11:58.910Z,63.70
2022-08-26T20:14:48.484Z,63.70
2022-08-26T20:17:38.446Z,63.70
2022-08-26T20:20:45.715Z,63.90
2022-08-26T20:23:36.488Z,64.00
2022-08-26T20:26:28.737Z,64.20
2022-08-26T20:29:19.788Z,65.10
2022-08-26T20:32:10.046Z,64.40
2022-08-26T20:35:00.439Z,64.50
2022-08-26T20:37:49.922Z,64.50
2022-08-26T20:40:39.384Z,64.70
2022-08-26T20:43:30.226Z,64.70
2022-08-26T20:46:23.022Z,65.00
2022-08-26T20:49:14.883Z,65.10
2022-08-26T20:52:05.506Z,65.20
2022-08-26T20:54:55.000Z,65.50
2022-08-26T20:57:44.468Z,66.10
2022-08-26T21:00:35.541Z,68.60
2022-08-26T21:03:25.076Z,72.90
2022-08-26T21:06:14.853Z,81.50
2022-08-26T21:09:06.104Z,90.50
2022-08-26T21:11:55.989Z,99.00
2022-08-26T21:14:49.411Z,99.90
2022-08-26T21:17:40.586Z,99.90
2022-08-26T21:20:32.604Z,99.90
2022-08-26T21:23:25.373Z,99.90
2022-08-26T21:26:18.165Z,99.90
2022-08-26T21:29:09.915Z,99.90
2022-08-26T21:31:59.586Z,99.90
2022-08-26T21:34:50.405Z,99.90
2022-08-26T21:37:39.941Z,99.90
2022-08-26T21:40:33.581Z,99.90
2022-08-26T21:43:35.439Z,99.90
2022-08-26T21:46:26.388Z,99.90
2022-08-26T21:49:17.443Z,99.90
2022-08-26T21:52:08.313Z,99.90
2022-08-26T21:54:59.749Z,99.90
2022-08-26T21:57:49.712Z,99.90
2022-08-26T22:00:39.468Z,99.90
2022-08-26T22:03:29.709Z,99.90
2022-08-26T22:06:28.805Z,99.90
2022-08-26T22:09:23.496Z,99.90
2022-08-26T22:12:18.375Z,99.90
2022-08-26T22:15:10.133Z,99.90
2022-08-26T22:17:59.631Z,99.90
2022-08-26T22:20:49.328Z,99.90
2022-08-26T22:23:40.237Z,99.90
2022-08-26T22:26:34.082Z,99.90
2022-08-26T22:29:25.153Z,99.90
2022-08-26T22:32:15.073Z,99.90
2022-08-26T22:35:28.457Z,99.90
2022-08-26T22:38:15.489Z,99.90
2022-08-26T22:41:08.307Z,99.90
2022-08-26T22:43:59.397Z,99.90
2022-08-26T22:46:50.831Z,99.90
2022-08-26T22:49:40.320Z,99.90
2022-08-26T22:52:30.310Z,99.90
2022-08-26T22:55:19.910Z,99.90
2022-08-26T22:58:09.477Z,99.90
2022-08-26T23:01:01.070Z,99.90
2022-08-26T23:03:50.807Z,99.90
2022-08-26T23:06:43.278Z,99.90
2022-08-26T23:09:37.341Z,99.90
2022-08-26T23:12:27.679Z,99.90
2022-08-26T23:15:17.199Z,99.90
2022-08-26T23:18:10.521Z,99.90
2022-08-26T23:21:00.291Z,99.90
2022-08-26T23:23:50.460Z,99.90
2022-08-26T23:26:41.713Z,99.90
2022-08-26T23:29:31.376Z,99.90
2022-08-26T23:32:21.034Z,99.90
2022-08-26T23:35:14.269Z,99.90
2022-08-26T23:38:04.026Z,99.90
2022-08-26T23:40:54.385Z,99.90
2022-08-26T23:43:45.111Z,99.90
2022-08-26T23:46:36.466Z,99.90
2022-08-26T23:49:27.157Z,99.90
2022-08-26T23:52:35.631Z,99.90
2022-08-26T23:55:25.165Z,99.90
2022-08-26T23:58:15.262Z,99.90
